Latest Weather Observations for Edinburgh

IDS60901

Issued at 4:21 pm CST Sunday 11 April 2021 (issued every 10 minutes, with the page automatically refreshed every 10 minutes)

About weather observations | Map of Adelaide area stations | Latest observations for Adelaide area | Other Formats
Station Details ID: 023083 Name: EDINBURGH RAAF Lat: -34.71 Lon: 138.62 Height: 16.54 m
Data from the previous 72 hours. | See also: Recent months at Edinburgh
Date/Time
CST
Temp
°C
App
Temp
°C
Dew
Point
°C
Rel
Hum
%
Delta-T
°C
Wind Press
QNH
hPa
Press
MSL
hPa
Rain since
9am
mm
Dir  Spd
km/h
Gust
km/h
Spd
kts
Gust
kts
11/04:00pm 17.7 12.1 5.3 44 6.0 S 24 35 13 19 1023.4 1023.3 0.0
11/03:30pm 19.2 13.5 3.0 34 7.5 S 22 46 12 25 1023.4 1023.3 0.0
11/03:00pm 18.9 12.4 4.7 39 6.8 SW 28 39 15 21 1023.4 1023.3 0.0
11/02:30pm 18.7 12.6 2.5 34 7.4 SSW 24 39 13 21 1023.6 1023.5 0.0
11/02:00pm 18.3 13.4 1.8 33 7.5 S 17 26 9 14 1023.3 1023.2 0.0
11/01:30pm 18.0 13.0 3.5 38 6.7 S 19 28 10 15 1023.4 1023.3 0.0
11/01:00pm 17.9 13.5 4.5 41 6.4 SSE 17 28 9 15 1023.6 1023.5 0.0
11/12:30pm 18.4 13.2 3.8 38 6.8 S 20 32 11 17 1023.7 1023.6 0.0
11/12:00pm 17.8 12.4 2.2 35 7.0 S 20 33 11 18 1023.9 1023.8 0.0
11/11:30am 18.5 12.6 1.9 33 7.5 S 22 39 12 21 1024.1 1024.0 0.0
11/11:00am 17.3 12.6 3.2 39 6.5 S 17 28 9 15 1024.4 1024.3 0.0
11/10:30am 17.4 12.6 5.4 45 5.8 S 20 32 11 17 1024.5 1024.4 0.0
11/10:00am 15.8 10.3 5.7 51 4.8 S 24 35 13 19 1024.6 1024.5 0.0
11/09:30am 16.1 11.3 4.5 46 5.4 S 19 28 10 15 1024.3 1024.2 0.0
11/09:00am 16.0 10.8 3.8 44 5.6 S 20 30 11 16 1024.1 1024.0 0.6
11/08:30am 15.8 10.5 2.9 42 5.8 SSW 20 30 11 16 1023.8 1023.7 0.6
11/08:00am 15.3 9.8 3.8 46 5.3 S 22 33 12 18 1023.5 1023.4 0.6
11/07:30am 14.8 10.9 5.3 53 4.5 S 15 20 8 11 1023.1 1023.0 0.6
11/07:00am 14.0 11.1 6.6 61 3.6 S 11 17 6 9 1022.8 1022.7 0.6
11/06:30am 13.5 11.5 7.3 66 3.0 S 7 11 4 6 1022.3 1022.2 0.6
11/06:00am 13.5 10.8 7.5 67 2.9 SSE 11 17 6 9 1022.1 1022.0 0.6
11/05:30am 13.1 9.4 8.0 71 2.5 SSE 17 26 9 14 1022.0 1021.9 0.6
11/05:00am 13.6 10.7 6.7 63 3.3 S 11 15 6 8 1021.4 1021.3 0.6
11/04:30am 13.4 10.1 6.3 62 3.4 S 13 20 7 11 1021.2 1021.1 0.6
11/04:00am 14.5 9.2 6.6 59 3.8 S 24 35 13 19 1021.0 1020.9 0.6
11/03:30am 14.7 10.7 6.5 58 4.0 S 17 32 9 17 1020.6 1020.5 0.6
11/03:00am 14.9 9.8 6.0 55 4.3 S 22 32 12 17 1020.5 1020.4 0.6
11/02:35am 15.1 10.4 5.9 54 4.4 S 20 39 11 21 1020.4 1020.3 0.6
11/02:30am 15.0 11.6 6.0 55 4.3 S 13 17 7 9 1020.5 1020.4 0.6
11/02:00am 15.1 11.1 4.8 50 4.8 S 15 24 8 13 1020.4 1020.3 0.6
11/01:30am 14.4 10.9 5.5 55 4.2 SSW 13 15 7 8 1020.4 1020.3 0.6
11/01:00am 14.9 10.4 6.0 55 4.3 S 19 22 10 12 1020.5 1020.4 0.6
11/12:30am 14.6 10.7 7.2 61 3.6 S 17 24 9 13 1020.5 1020.4 0.6
11/12:00am 13.7 11.3 9.9 78 2.0 SSW 13 17 7 9 1020.5 1020.4 0.6
 
Date/Time
CST
Temp
°C
App
Temp
°C
Dew
Point
°C
Rel
Hum
%
Delta-T
°C
Wind Press
QNH
hPa
Press
MSL
hPa
Rain since
9am
mm
Dir  Spd
km/h
Gust
km/h
Spd
kts
Gust
kts
10/11:30pm 13.9 7.5 9.3 74 2.3 SSW 33 48 18 26 1020.5 1020.4 0.6
10/11:21pm 14.8 9.6 9.0 68 3.0 SW 26 44 14 24 1020.6 1020.5 0.6
10/11:00pm 15.3 11.1 8.3 63 3.5 SW 20 26 11 14 1020.4 1020.3 0.6
10/10:30pm 15.6 10.9 7.6 59 4.0 SSW 22 30 12 16 1020.4 1020.3 0.6
10/10:00pm 15.9 10.3 7.1 56 4.3 SW 26 32 14 17 1020.0 1019.9 0.6
10/09:30pm 15.8 10.1 6.8 55 4.4 SW 26 33 14 18 1019.9 1019.8 0.6
10/09:23pm 15.6 9.3 7.4 58 4.1 SSW 30 48 16 26 1019.9 1019.8 0.6
10/09:00pm 16.2 10.5 6.9 54 4.6 SW 26 35 14 19 1019.7 1019.6 0.6
10/08:30pm 15.9 10.2 6.6 54 4.5 SSW 26 41 14 22 1019.6 1019.5 0.6
10/08:00pm 15.0 8.1 8.9 67 3.1 SSW 35 46 19 25 1019.2 1019.1 0.6
10/07:46pm 15.9 10.5 8.2 60 3.9 SSW 26 46 14 25 1018.9 1018.8 0.6
10/07:30pm 15.5 11.1 7.5 59 4.0 SSW 20 26 11 14 1018.8 1018.7 0.6
10/07:00pm 15.3 10.1 7.3 59 4.0 SSW 24 35 13 19 1018.5 1018.4 0.6
10/06:30pm 14.8 8.2 10.0 73 2.5 SW 35 44 19 24 1018.3 1018.2 0.4
10/06:00pm 17.1 10.6 6.3 49 5.3 SSW 30 39 16 21 1017.6 1017.5 0.4
10/05:30pm 16.9 10.6 7.3 53 4.8 SSW 30 41 16 22 1017.5 1017.4 0.4
10/05:00pm 17.2 9.6 5.8 47 5.5 SSW 35 46 19 25 1017.3 1017.2 0.4
10/04:30pm 17.5 10.2 7.3 51 5.1 SSW 35 44 19 24 1017.1 1017.0 0.4
10/04:00pm 18.3 10.5 6.8 47 5.7 SSW 37 50 20 27 1016.8 1016.7 0.4
10/03:30pm 19.7 11.5 4.6 37 7.3 SW 37 48 20 26 1016.6 1016.5 0.4
10/03:00pm 19.2 11.5 7.3 46 6.0 SW 37 46 20 25 1016.5 1016.4 0.4
10/02:30pm 19.5 12.1 8.2 48 5.8 SSW 37 52 20 28 1016.2 1016.1 0.4
10/02:00pm 19.4 12.2 9.0 51 5.5 SW 37 48 20 26 1016.1 1016.0 0.4
10/01:30pm 18.5 11.8 9.8 57 4.6 SSW 35 44 19 24 1016.2 1016.1 0.4
10/01:00pm 17.5 12.0 12.4 72 2.8 SW 33 50 18 27 1016.1 1016.0 0.4
10/12:59pm 17.6 12.6 13.3 76 2.4 SW 32 50 17 27 1016.1 1016.0 0.4
10/12:57pm 17.4 12.9 12.7 74 2.6 SW 28 50 15 27 1016.1 1016.0 0.4
10/12:44pm 15.7 11.6 12.8 83 1.6 SW 26 32 14 17 1016.5 1016.4 0.4
10/12:30pm 16.3 13.1 13.2 82 1.7 SW 22 30 12 16 1016.6 1016.5 0.2
10/12:00pm 15.9 9.9 12.1 78 2.1 SW 35 50 19 27 1016.6 1016.5 0.0
10/11:30am 19.3 13.1 10.0 55 5.0 SW 33 41 18 22 1016.2 1016.1 0.0
10/11:00am 19.9 13.5 9.2 50 5.7 SW 33 44 18 24 1016.1 1016.0 0.0
10/10:30am 19.5 12.9 8.5 49 5.7 SW 33 43 18 23 1016.1 1016.0 0.0
10/10:00am 19.4 13.0 6.8 44 6.3 SSW 30 43 16 23 1016.3 1016.2 0.0
10/09:30am 17.5 11.9 10.1 62 3.9 SSW 30 43 16 23 1016.3 1016.2 0.0
10/09:13am 18.0 12.7 9.9 59 4.3 SSW 28 48 15 26 1016.1 1016.0 0.0
10/09:00am 17.5 12.8 10.6 64 3.7 SW 26 35 14 19 1016.0 1015.9 0.4
10/08:30am 16.4 13.7 11.8 74 2.5 SSW 17 37 9 20 1015.9 1015.8 0.4
10/08:00am 15.3 12.3 11.9 80 1.8 S 19 28 10 15 1015.6 1015.5 0.4
10/07:30am 14.3 9.8 11.5 83 1.5 SW 26 39 14 21 1015.2 1015.1 0.4
10/07:17am 15.1 12.8 11.9 81 1.7 SSW 15 46 8 25 1015.0 1014.9 0.4
10/07:00am 14.5 13.4 12.0 85 1.4 SSW 9 13 5 7 1014.8 1014.7 0.4
10/06:30am 14.0 12.4 11.7 86 1.2 SSW 11 15 6 8 1014.7 1014.6 0.4
10/06:06am 14.3 11.1 11.3 82 1.6 SSW 19 35 10 19 1014.6 1014.5 0.2
10/06:00am 15.2 13.4 10.8 75 2.3 S 11 15 6 8 1014.5 1014.4 0.2
10/05:30am 14.8 11.1 10.2 74 2.4 SW 20 24 11 13 1014.1 1014.0 0.2
10/05:00am 14.5 13.0 10.7 78 2.0 SSW 9 11 5 6 1014.0 1013.9 0.2
10/04:30am 14.0 11.0 10.6 80 1.8 SW 17 22 9 12 1013.9 1013.8 0.2
10/04:00am 14.4 11.0 11.2 81 1.7 SW 20 28 11 15 1013.9 1013.8 0.0
10/03:30am 14.2 9.5 11.9 86 1.2 WSW 28 37 15 20 1014.1 1014.0 0.0
10/03:00am 14.8 8.7 11.6 81 1.7 WSW 35 48 19 26 1013.9 1013.8 0.0
10/02:55am 16.0 10.8 10.3 69 3.0 WSW 28 46 15 25 1013.9 1013.8 0.0
10/02:30am 16.8 11.6 5.7 48 5.4 SW 22 28 12 15 1013.9 1013.8 0.0
10/02:00am 16.1 10.6 6.0 51 4.9 SW 24 35 13 19 1013.9 1013.8 0.0
10/01:30am 16.5 11.5 6.6 52 4.9 SW 22 30 12 16 1013.9 1013.8 0.0
10/01:00am 16.8 11.9 5.1 46 5.6 SW 20 28 11 15 1014.2 1014.1 0.0
10/12:30am 16.9 10.9 5.5 47 5.5 SW 26 33 14 18 1014.0 1013.9 0.0
10/12:00am 17.2 12.9 7.0 51 5.1 SW 19 30 10 16 1014.1 1014.0 0.0
 
Date/Time
CST
Temp
°C
App
Temp
°C
Dew
Point
°C
Rel
Hum
%
Delta-T
°C
Wind Press
QNH
hPa
Press
MSL
hPa
Rain since
9am
mm
Dir  Spd
km/h
Gust
km/h
Spd
kts
Gust
kts
09/11:30pm 17.0 13.8 8.4 57 4.4 SSW 15 20 8 11 1014.2 1014.1 0.0
09/11:00pm 17.2 14.0 8.4 56 4.5 SSW 15 19 8 10 1014.3 1014.2 0.0
09/10:30pm 17.1 13.8 8.0 55 4.6 SSW 15 24 8 13 1014.7 1014.6 0.0
09/10:00pm 17.1 14.3 6.9 51 5.1 S 11 13 6 7 1014.5 1014.4 0.0
09/09:30pm 17.3 13.7 6.8 50 5.2 S 15 19 8 10 1014.7 1014.6 0.0
09/09:00pm 16.9 13.9 7.5 54 4.7 SSW 13 17 7 9 1014.6 1014.5 0.0
09/08:30pm 16.9 13.7 6.7 51 5.0 S 13 20 7 11 1014.2 1014.1 0.0
09/08:00pm 17.1 13.9 6.9 51 5.1 SSW 13 19 7 10 1013.9 1013.8 0.0
09/07:30pm 17.5 13.2 7.0 50 5.2 SSW 19 22 10 12 1013.7 1013.6 0.0
09/07:00pm 17.5 13.6 7.3 51 5.1 SSW 17 26 9 14 1013.4 1013.3 0.0
09/06:30pm 17.5 12.1 6.4 48 5.5 SSW 24 30 13 16 1013.2 1013.1 0.0
09/06:00pm 18.0 12.1 5.9 45 5.9 SSW 26 33 14 18 1012.7 1012.6 0.0
09/05:30pm 18.6 11.6 6.1 44 6.2 SSW 32 39 17 21 1012.3 1012.2 0.0
09/05:00pm 19.2 12.4 7.0 45 6.2 SW 32 39 17 21 1012.1 1012.0 0.0
09/04:30pm 19.4 12.8 8.4 49 5.7 SW 33 43 18 23 1012.1 1012.0 0.0
09/04:00pm 20.0 13.1 7.4 44 6.4 SW 33 43 18 23 1012.2 1012.1 0.0
09/03:30pm 20.2 13.4 6.9 42 6.7 SW 32 43 17 23 1012.1 1012.0 0.0
09/03:00pm 21.0 14.1 6.5 39 7.3 SW 32 43 17 23 1012.1 1012.0 0.0
09/02:30pm 20.5 14.1 6.8 41 6.9 SW 30 37 16 20 1012.2 1012.1 0.0
09/02:00pm 21.7 15.9 7.9 41 7.2 SW 28 44 15 24 1012.5 1012.4 0.0
09/01:30pm 20.7 14.7 7.0 41 7.0 WSW 28 41 15 22 1012.8 1012.7 0.0
09/01:00pm 20.2 14.2 7.2 43 6.6 WSW 28 35 15 19 1013.1 1013.0 0.0
09/12:30pm 21.1 17.0 8.0 43 6.8 WSW 19 35 10 19 1013.4 1013.3 0.0
09/12:00pm 20.8 17.8 6.0 38 7.4 WSW 11 20 6 11 1013.5 1013.4 0.0
09/11:30am 19.6 16.6 6.0 41 6.7 S 11 17 6 9 1013.7 1013.6 0.0
09/11:00am 20.0 16.9 7.1 43 6.6 SSE 13 19 7 10 1013.7 1013.6 0.0
09/10:30am 19.6 16.1 7.0 44 6.4 SSW 15 22 8 12 1014.4 1014.3 0.0
09/10:00am 17.9 14.6 7.9 52 5.1 SSW 15 24 8 13 1014.6 1014.5 0.0
09/09:30am 18.4 14.9 8.9 54 4.9 SSW 17 20 9 11 1014.6 1014.5 0.0
09/09:00am 17.4 13.2 9.6 60 4.1 SSW 22 26 12 14 1014.7 1014.6 0.0
09/08:30am 17.2 14.1 10.3 64 3.7 SSW 17 22 9 12 1014.3 1014.2 0.0
09/08:00am 16.9 14.3 10.7 67 3.3 SSW 15 20 8 11 1013.8 1013.7 0.0
09/07:30am 15.9 13.7 10.9 72 2.7 SSW 13 15 7 8 1013.5 1013.4 0.0
09/07:00am 15.3 13.9 10.9 75 2.3 SSW 9 13 5 7 1013.1 1013.0 0.0
09/06:30am 15.7 14.7 11.1 74 2.5 S 7 9 4 5 1012.6 1012.5 0.0
09/06:00am 16.5 14.5 11.4 72 2.8 S 13 19 7 10 1012.1 1012.0 0.0
09/05:30am 16.7 14.8 11.8 73 2.7 S 13 19 7 10 1012.0 1011.9 0.0
09/05:00am 17.1 14.1 11.8 71 2.9 S 19 28 10 15 1011.5 1011.4 0.0
09/04:30am 17.5 15.0 12.4 72 2.8 S 17 20 9 11 1011.4 1011.3 0.0
09/04:00am 17.5 14.6 13.0 75 2.5 S 20 28 11 15 1011.0 1010.9 0.0
09/03:30am 17.6 13.7 13.3 76 2.4 SSW 26 32 14 17 1010.9 1010.8 0.0
09/03:00am 17.9 15.5 14.4 80 2.0 SW 20 28 11 15 1011.2 1011.1 0.0
09/02:30am 18.2 16.4 14.5 79 2.1 SSW 17 20 9 11 1010.6 1010.5 0.0
09/02:00am 18.4 16.8 15.1 81 1.9 SSW 17 22 9 12 1010.4 1010.3 0.0
09/01:30am 18.5 16.5 15.6 83 1.7 SSW 20 32 11 17 1010.9 1010.8 0.0
09/01:00am 18.6 16.2 15.5 82 1.8 S 22 28 12 15 1010.3 1010.2 0.0
09/12:30am 19.2 16.7 16.1 82 1.9 SW 24 39 13 21 1010.8 1010.7 0.0
09/12:00am 20.1 17.6 15.1 73 2.9 SSW 22 30 12 16 1010.0 1009.9 0.0
 
Date/Time
CST
Temp
°C
App
Temp
°C
Dew
Point
°C
Rel
Hum
%
Delta-T
°C
Wind Press
QNH
hPa
Press
MSL
hPa
Rain since
9am
mm
Dir  Spd
km/h
Gust
km/h
Spd
kts
Gust
kts
08/11:30pm 20.9 20.0 14.8 68 3.6 S 13 20 7 11 1009.7 1009.6 0.0
08/11:00pm 20.7 20.2 12.7 60 4.5 SSW 7 13 4 7 1010.0 1009.9 0.0
08/10:30pm 19.0 18.8 8.9 52 5.3 CALM 0 0 0 0 1010.2 1010.1 0.0
08/10:00pm 19.5 19.2 10.2 55 5.0 E 2 7 1 4 1009.4 1009.3 0.0
08/09:30pm 19.4 18.1 9.9 54 5.1 WSW 7 9 4 5 1009.3 1009.2 0.0
08/09:00pm 18.8 17.4 9.6 55 4.9 NW 7 9 4 5 1008.8 1008.7 0.0
08/08:30pm 18.9 17.2 8.3 50 5.5 NW 7 11 4 6 1008.4 1008.4 0.0
08/08:00pm 19.9 17.8 6.6 42 6.7 SW 7 11 4 6 1007.9 1007.9 0.0
08/07:30pm 21.5 18.5 5.8 36 7.9 SSW 11 13 6 7 1007.9 1007.9 0.0
08/07:00pm 22.6 20.0 4.2 30 9.0 SSW 7 9 4 5 1007.8 1007.8 0.0
08/06:30pm 24.0 20.2 3.9 27 9.9 SSW 13 15 7 8 1007.8 1007.8 0.0
08/06:00pm 25.0 20.8 3.6 25 10.6 SSW 15 19 8 10 1007.5 1007.5 0.0
08/05:30pm 26.5 20.9 3.7 23 11.4 SSW 22 30 12 16 1007.2 1007.2 0.0
08/05:00pm 26.0 18.9 6.6 29 10.1 SW 33 41 18 22 1007.0 1007.0 0.0
08/04:30pm 29.3 22.7 4.0 20 12.9 SW 28 35 15 19 1006.6 1006.6 0.0

Latest Capital City Observations: Canberra | Sydney | Melbourne | Brisbane | Adelaide | Perth | Hobart | Darwin

Other formats

Comma delimited format used in spreadsheet applications
http://www.bom.gov.au/fwo/IDS60901/IDS60901.95676.axf

JavaScript Object Notation format (JSON) in row-major order
http://www.bom.gov.au/fwo/IDS60901/IDS60901.95676.json

Data quality

Most of these data are generated automatically and are frequently updated. Quality checks on data are not normally performed. It is possible for incorrect values to appear. Refer to information at About Latest Weather Observations and please check the disclaimer before using these data.